Time;durP1;ratioP1;P1;durP2;ratioP2;P2;SDS_P1;SDS_P2;PMS_P1;PMS_P2;Temp;Humidity;BMP_temperature;BMP_pressure;BME280_temperature;BME280_humidity;BME280_pressure;Samples;Min_cycle;Max_cycle;Signal;HPM_P1;HPM_P2
2022/01/01 00:00:10;;;;;;;26.77;21.70;;;;;;;9.94;94.15;99413.28;5060015;28;20025;-86
2022/01/01 00:02:36;;;;;;;24.10;19.92;;;;;;;9.80;94.53;99397.50;5026469;28;20399;-86
2022/01/01 00:05:03;;;;;;;26.02;20.38;;;;;;;9.93;94.17;99420.47;5059640;28;20021;-86
2022/01/01 00:07:29;;;;;;;23.88;19.05;;;;;;;9.94;94.26;99427.41;5059070;28;20045;-86
2022/01/01 00:09:54;;;;;;;22.75;19.60;;;;;;;9.94;94.14;99424.72;5027151;28;20059;-85
2022/01/01 00:12:19;;;;;;;22.58;18.98;;;;;;;9.88;94.20;99411.50;5043585;28;20036;-84
2022/01/01 00:14:45;;;;;;;25.80;19.85;;;;;;;9.92;94.17;99418.81;5041978;28;20056;-85
2022/01/01 00:17:10;;;;;;;25.42;20.35;;;;;;;9.94;94.41;99424.72;5059430;28;20033;-87
2022/01/01 00:19:36;;;;;;;24.70;19.65;;;;;;;9.86;93.82;99418.94;5041585;28;20021;-86
2022/01/01 00:22:03;;;;;;;25.38;19.52;;;;;;;9.88;93.87;99422.16;5054669;28;20087;-86
2022/01/01 00:24:28;;;;;;;26.50;20.05;;;;;;;9.49;94.33;99364.97;5059154;28;20090;-86
2022/01/01 00:26:54;;;;;;;21.75;18.67;;;;;;;9.92;94.19;99434.81;5057635;28;20021;-85
2022/01/01 00:29:20;;;;;;;24.80;19.50;;;;;;;9.91;94.45;99435.88;5057356;28;20051;-84
2022/01/01 00:31:45;;;;;;;28.73;20.05;;;;;;;9.92;94.08;99436.66;5050844;28;20398;-84
2022/01/01 00:34:11;;;;;;;27.40;20.58;;;;;;;9.91;94.45;99432.38;5053763;28;20039;-83
2022/01/01 00:36:38;;;;;;;25.92;20.38;;;;;;;9.91;93.97;99441.22;5034332;28;20497;-86
2022/01/01 00:39:04;;;;;;;29.73;21.98;;;;;;;9.91;94.51;99441.22;5052980;28;20060;-85
2022/01/01 00:41:30;;;;;;;27.75;20.55;;;;;;;9.91;94.55;99446.53;5052755;28;20113;-86
2022/01/01 00:43:55;;;;;;;22.02;19.63;;;;;;;9.91;94.04;99448.38;5022666;28;20083;-86
2022/01/01 00:46:20;;;;;;;24.55;20.58;;;;;;;9.92;94.34;99450.00;5038102;28;20045;-86
2022/01/01 00:48:47;;;;;;;26.88;20.52;;;;;;;9.69;93.95;99411.63;5050300;28;20026;-87
2022/01/01 00:51:12;;;;;;;23.58;19.80;;;;;;;9.91;93.91;99449.22;5045494;28;20025;-85
2022/01/01 00:53:38;;;;;;;28.08;21.65;;;;;;;9.55;94.11;99386.19;5045388;28;20040;-85
2022/01/01 00:56:04;;;;;;;28.10;20.45;;;;;;;9.51;93.85;99379.69;5059003;28;21597;-85
2022/01/01 00:58:29;;;;;;;28.90;22.38;;;;;;;9.19;93.84;99340.22;5060344;28;20029;-85
2022/01/01 01:00:55;;;;;;;27.20;21.95;;;;;;;9.90;93.83;99442.25;5057610;28;20508;-86
2022/01/01 01:03:20;;;;;;;25.50;21.15;;;;;;;9.89;94.37;99445.97;5035355;28;20036;-85
2022/01/01 01:05:46;;;;;;;28.55;21.98;;;;;;;9.74;94.34;99422.38;5052070;28;20049;-85
2022/01/01 01:08:14;;;;;;;30.45;22.40;;;;;;;9.88;93.90;99444.31;5019671;28;20055;-85
2022/01/01 01:10:40;;;;;;;29.92;22.45;;;;;;;9.65;94.27;99412.28;5053255;28;20107;-85
2022/01/01 01:13:08;;;;;;;29.33;22.20;;;;;;;9.74;94.08;99429.59;5036361;28;20037;-86
2022/01/01 01:15:34;;;;;;;24.60;20.27;;;;;;;9.87;94.37;99458.72;5058875;28;20036;-85
2022/01/01 01:18:01;;;;;;;28.02;23.27;;;;;;;9.64;93.96;99416.81;5059200;28;20044;-85
2022/01/01 01:20:28;;;;;;;32.75;24.35;;;;;;;9.85;94.26;99450.09;5058449;28;20036;-86
2022/01/01 01:22:54;;;;;;;32.25;23.30;;;;;;;9.88;93.97;99452.31;5058066;28;20032;-86
2022/01/01 01:25:21;;;;;;;37.20;24.75;;;;;;;9.78;94.52;99444.09;5056468;28;20047;-86
2022/01/01 01:27:48;;;;;;;28.88;23.77;;;;;;;9.77;94.59;99440.59;5055420;28;20024;-84
2022/01/01 01:30:15;;;;;;;33.55;25.00;;;;;;;9.88;94.21;99468.31;5042110;28;20040;-85
2022/01/01 01:32:41;;;;;;;31.50;24.55;;;;;;;9.85;94.18;99459.97;5041134;28;20082;-85
2022/01/01 01:35:08;;;;;;;34.25;24.48;;;;;;;9.87;94.45;99468.56;5056485;28;20029;-86
2022/01/01 01:37:34;;;;;;;30.90;24.08;;;;;;;9.87;94.36;99472.03;5039656;28;20408;-86
2022/01/01 01:40:00;;;;;;;29.23;24.33;;;;;;;9.87;94.11;99469.38;5057401;28;20056;-86
2022/01/01 01:42:28;;;;;;;31.65;24.42;;;;;;;9.87;93.86;99473.88;5060089;28;20028;-85
2022/01/01 01:44:54;;;;;;;30.58;23.90;;;;;;;9.86;94.26;99475.72;5038757;28;20136;-87
2022/01/01 01:47:29;;;;;;;33.05;24.35;;;;;;;9.87;94.16;99482.72;5057571;28;20530;-83
2022/01/01 01:49:55;;;;;;;33.15;23.55;;;;;;;9.87;93.77;99481.88;5057940;28;20020;-87
2022/01/01 01:52:20;;;;;;;30.77;23.92;;;;;;;9.81;94.19;99480.94;5058905;28;20512;-86
2022/01/01 01:54:46;;;;;;;29.23;22.10;;;;;;;9.87;94.59;99496.03;5058759;28;20029;-84
2022/01/01 01:57:12;;;;;;;27.98;21.85;;;;;;;9.88;93.91;99483.50;5057713;28;20095;-84
2022/01/01 01:59:40;;;;;;;30.48;21.88;;;;;;;9.87;94.55;99487.22;5032362;28;20056;-87
2022/01/01 02:02:06;;;;;;;27.70;21.95;;;;;;;9.79;94.43;99475.00;5055180;28;20036;-86
2022/01/01 02:04:32;;;;;;;27.90;21.63;;;;;;;9.80;94.23;99487.31;5055594;28;20532;-85
2022/01/01 02:06:58;;;;;;;29.85;21.25;;;;;;;9.75;93.72;99484.50;5023216;28;20021;-86
2022/01/01 02:09:24;;;;;;;25.20;20.27;;;;;;;9.78;94.18;99473.41;5034984;28;20049;-86
2022/01/01 02:11:52;;;;;;;26.83;20.33;;;;;;;9.87;94.38;99479.22;5049522;28;20519;-86
2022/01/01 02:14:32;;;;;;;29.35;19.92;;;;;;;9.87;94.04;99490.72;5054390;28;20021;-86
2022/01/01 02:19:24;;;;;;;26.35;19.70;;;;;;;9.86;94.00;99488.25;5054037;28;20078;-86
2022/01/01 02:21:52;;;;;;;29.67;18.90;;;;;;;9.85;94.47;99492.75;5036206;28;20503;-86
2022/01/01 02:24:18;;;;;;;24.60;18.67;;;;;;;9.85;94.24;99503.44;5053111;28;20021;-86
2022/01/01 02:26:43;;;;;;;24.33;19.48;;;;;;;9.84;94.29;99496.47;5037992;28;20029;-85
2022/01/01 02:29:10;;;;;;;28.75;19.63;;;;;;;9.69;94.06;99477.44;5033119;28;20377;-87
2022/01/01 02:31:35;;;;;;;24.08;18.48;;;;;;;9.76;94.46;99488.81;5037279;28;20029;-84
2022/01/01 02:34:06;;;;;;;25.63;17.88;;;;;;;9.83;93.95;99495.66;5037859;28;20613;-86
2022/01/01 02:36:40;;;;;;;22.23;17.52;;;;;;;9.69;93.54;99467.59;5056342;28;20048;-85
2022/01/01 02:39:19;;;;;;;21.05;16.80;;;;;;;9.82;93.73;99478.06;5055782;28;20028;-85
2022/01/01 02:41:46;;;;;;;20.98;16.60;;;;;;;9.82;94.01;99494.06;5055744;28;20093;-87
2022/01/01 02:44:12;;;;;;;22.63;17.08;;;;;;;9.81;93.91;99494.25;5039611;28;20104;-87
2022/01/01 02:46:38;;;;;;;23.85;17.10;;;;;;;9.75;93.80;99488.00;5054586;28;20400;-86
2022/01/01 02:49:04;;;;;;;20.88;15.40;;;;;;;9.79;93.76;99491.81;5043987;28;20108;-87
2022/01/01 02:51:29;;;;;;;19.90;15.30;;;;;;;9.78;94.04;99487.53;5056294;28;20078;-87
2022/01/01 02:53:55;;;;;;;20.45;14.52;;;;;;;9.78;93.80;99486.72;5023485;28;20028;-85
2022/01/01 02:56:21;;;;;;;19.75;14.88;;;;;;;9.74;93.52;99481.03;5057896;28;20162;-86
2022/01/01 02:58:46;;;;;;;21.95;16.17;;;;;;;9.77;94.27;99477.09;5023519;28;20064;-87
2022/01/01 03:01:12;;;;;;;17.90;15.50;;;;;;;9.75;93.83;99485.34;5038917;28;20032;-84
2022/01/01 03:03:37;;;;;;;20.00;14.98;;;;;;;9.76;93.74;99486.16;5038415;28;20028;-86
2022/01/01 03:06:03;;;;;;;17.88;15.13;;;;;;;9.75;93.90;99481.84;5055541;28;20036;-85
2022/01/01 03:08:29;;;;;;;21.55;14.77;;;;;;;9.74;93.55;99486.34;5059369;28;20112;-85
2022/01/01 03:10:54;;;;;;;20.95;15.75;;;;;;;9.74;93.92;99480.25;5052158;28;20041;-84
2022/01/01 03:13:20;;;;;;;18.20;13.95;;;;;;;9.74;94.06;99486.34;5038646;28;20021;-84
2022/01/01 03:15:45;;;;;;;20.27;13.65;;;;;;;9.72;93.89;99483.09;5056090;28;20029;-86
2022/01/01 03:18:11;;;;;;;17.38;13.18;;;;;;;9.73;93.83;99489.25;5041227;28;20033;-86
2022/01/01 03:20:36;;;;;;;21.60;15.07;;;;;;;9.16;93.32;99402.75;5041023;28;20089;-87
2022/01/01 03:23:03;;;;;;;17.13;14.95;;;;;;;9.18;93.51;99405.19;5056689;28;20489;-86
2022/01/01 03:25:29;;;;;;;21.48;13.80;;;;;;;9.73;93.60;99494.59;5050388;28;20033;-86
2022/01/01 03:27:55;;;;;;;17.40;13.05;;;;;;;9.74;93.85;99496.22;5040502;28;20029;-86
2022/01/01 03:30:20;;;;;;;16.85;13.50;;;;;;;9.50;93.96;99452.66;5026490;28;20079;-86
2022/01/01 03:32:46;;;;;;;17.40;13.13;;;;;;;9.65;94.00;99476.25;5042328;28;20086;-86
2022/01/01 03:35:12;;;;;;;20.73;14.10;;;;;;;9.74;94.10;99490.91;5023371;28;20124;-86
2022/01/01 03:37:37;;;;;;;18.77;13.40;;;;;;;9.56;93.68;99467.78;5059862;28;20021;-85
2022/01/01 03:40:04;;;;;;;19.90;13.98;;;;;;;9.59;94.20;99477.16;5060119;28;20037;-86
2022/01/01 03:42:30;;;;;;;20.15;14.90;;;;;;;9.71;93.98;99488.69;5042772;28;20401;-85
2022/01/01 03:44:55;;;;;;;18.55;13.70;;;;;;;9.68;93.93;99487.28;5055770;28;20033;-85
2022/01/01 03:47:21;;;;;;;19.85;13.90;;;;;;;9.70;93.57;99492.38;5051591;28;20032;-85
2022/01/01 03:49:46;;;;;;;17.60;12.25;;;;;;;9.69;93.59;99493.41;5037127;28;20037;-86
2022/01/01 03:52:12;;;;;;;20.15;13.10;;;;;;;9.69;93.67;99493.41;5051636;28;20029;-85
2022/01/01 03:54:37;;;;;;;17.70;13.43;;;;;;;9.68;93.78;99487.28;5039004;28;20025;-85
2022/01/01 03:57:03;;;;;;;18.30;12.80;;;;;;;9.67;93.84;99490.16;5049711;28;20110;-86
2022/01/01 03:59:29;;;;;;;21.42;13.05;;;;;;;9.66;93.34;99496.53;5047639;28;20117;-86
2022/01/01 04:01:55;;;;;;;19.58;13.43;;;;;;;9.65;93.75;99501.03;5061467;28;20060;-85
2022/01/01 04:04:22;;;;;;;19.42;13.30;;;;;;;9.52;93.44;99479.13;5055847;28;20075;-85
2022/01/01 04:06:48;;;;;;;17.00;12.25;;;;;;;9.65;93.47;99502.91;5054915;28;20025;-86
2022/01/01 04:09:14;;;;;;;20.30;11.88;;;;;;;9.64;93.54;99503.94;5055103;28;20025;-84
2022/01/01 04:11:40;;;;;;;20.15;12.35;;;;;;;9.64;93.50;99503.94;5053756;28;20037;-86
2022/01/01 04:14:06;;;;;;;15.82;12.20;;;;;;;9.64;93.50;99507.44;5038770;28;20029;-85
2022/01/01 04:16:31;;;;;;;16.75;11.88;;;;;;;9.65;93.19;99506.38;5053897;28;20044;-86
2022/01/01 04:18:57;;;;;;;18.83;11.90;;;;;;;9.63;93.52;99513.00;5036922;28;20060;-86
2022/01/01 04:21:22;;;;;;;17.20;11.65;;;;;;;9.60;93.85;99495.59;5033828;28;20025;-86
2022/01/01 04:23:47;;;;;;;14.63;10.98;;;;;;;9.63;93.36;99507.66;5036921;28;20033;-85
2022/01/01 04:26:13;;;;;;;16.02;10.63;;;;;;;9.61;93.68;99493.75;5055597;28;20029;-85
2022/01/01 04:28:40;;;;;;;16.05;10.60;;;;;;;9.60;93.88;99495.59;5021553;28;20037;-86
2022/01/01 04:31:06;;;;;;;15.65;11.45;;;;;;;9.61;93.91;99501.75;5052235;28;20021;-86
2022/01/01 04:33:32;;;;;;;13.68;10.13;;;;;;;9.61;93.52;99507.88;5036479;28;20060;-85
2022/01/01 04:35:57;;;;;;;15.93;10.40;;;;;;;9.62;93.51;99500.69;5038141;28;20053;-85
2022/01/01 04:38:40;;;;;;;12.20;9.88;;;;;;;9.63;93.54;99505.00;5037755;28;20031;-84
2022/01/01 04:41:08;;;;;;;15.68;10.27;;;;;;;9.60;93.60;99497.44;5053340;28;20021;-86
2022/01/01 04:43:34;;;;;;;16.83;9.88;;;;;;;9.46;93.57;99477.31;5043392;28;20101;-85
2022/01/01 04:45:59;;;;;;;12.00;9.13;;;;;;;9.65;93.08;99505.59;5052736;28;20108;-86
2022/01/01 04:48:25;;;;;;;14.07;9.10;;;;;;;9.65;93.06;99514.38;5053179;28;20070;-86
2022/01/01 04:50:51;;;;;;;13.55;9.30;;;;;;;9.63;93.20;99515.66;5036655;28;20087;-86
2022/01/01 04:53:18;;;;;;;18.33;10.25;;;;;;;9.64;93.22;99530.59;5053205;28;20039;-86
2022/01/01 04:55:48;;;;;;;12.55;9.40;;;;;;;9.64;93.83;99533.25;5053134;28;20029;-85
2022/01/01 04:58:14;;;;;;;15.60;9.52;;;;;;;8.92;93.34;99425.78;5051587;28;20029;-86
2022/01/01 05:00:39;;;;;;;11.40;9.23;;;;;;;9.63;94.02;99544.97;5023953;28;20617;-85
2022/01/01 05:03:05;;;;;;;11.75;9.60;;;;;;;9.53;93.44;99532.16;5052774;28;20036;-86
2022/01/01 05:05:30;;;;;;;13.00;9.07;;;;;;;9.59;93.50;99544.59;5036466;28;20031;-87
2022/01/01 05:07:56;;;;;;;11.38;9.18;;;;;;;9.57;93.42;99535.19;5052407;28;20033;-87
2022/01/01 05:10:21;;;;;;;12.63;9.07;;;;;;;9.62;93.16;99548.66;5038163;28;20079;-85
2022/01/01 05:12:47;;;;;;;10.02;8.90;;;;;;;9.60;93.75;99550.75;5051362;28;20059;-86
2022/01/01 05:15:12;;;;;;;12.75;8.13;;;;;;;9.59;93.75;99546.44;5049725;28;20025;-85
2022/01/01 05:17:38;;;;;;;13.18;8.57;;;;;;;9.50;93.80;99542.47;5058894;28;20041;-85
2022/01/01 05:20:07;;;;;;;10.95;8.52;;;;;;;9.55;93.89;99555.91;5032594;28;20028;-85
2022/01/01 05:22:32;;;;;;;13.25;8.63;;;;;;;9.56;94.00;99553.06;5046600;28;20048;-86
2022/01/01 05:25:00;;;;;;;12.02;8.30;;;;;;;9.56;93.43;99562.91;5034124;28;20029;-85
2022/01/01 05:27:31;;;;;;;10.48;8.07;;;;;;;9.55;93.69;99567.41;5054038;28;20031;-85
2022/01/01 05:29:57;;;;;;;12.38;8.65;;;;;;;9.54;93.78;99568.47;5052758;28;20025;-86
2022/01/01 05:32:22;;;;;;;9.45;7.65;;;;;;;9.52;93.76;99559.06;5051409;28;21412;-86
2022/01/01 05:34:48;;;;;;;9.68;8.07;;;;;;;9.54;93.75;99557.78;5050463;28;20589;-86
2022/01/01 05:37:13;;;;;;;11.45;8.95;;;;;;;9.56;94.31;99557.56;5043389;28;20473;-85
2022/01/01 05:39:39;;;;;;;10.27;7.93;;;;;;;9.56;94.26;99549.56;5031444;28;20021;-85
2022/01/01 05:42:05;;;;;;;9.93;6.85;;;;;;;9.56;93.71;99549.56;5045926;28;20032;-86
2022/01/01 05:44:30;;;;;;;9.68;7.47;;;;;;;9.54;94.20;99547.13;5049573;28;20669;-86
2022/01/01 05:46:55;;;;;;;11.38;8.30;;;;;;;9.48;94.29;99541.91;5034864;28;20036;-86
2022/01/01 05:49:21;;;;;;;9.77;8.23;;;;;;;9.54;93.92;99548.97;5048519;28;20021;-85
2022/01/01 05:51:47;;;;;;;10.68;6.90;;;;;;;9.53;94.14;99558.00;5042214;28;20040;-86
2022/01/01 05:54:12;;;;;;;12.65;8.18;;;;;;;9.54;94.27;99560.47;5035315;28;20048;-86
2022/01/01 05:56:38;;;;;;;8.80;7.50;;;;;;;9.54;94.22;99556.97;5036041;28;20029;-86
2022/01/01 05:59:04;;;;;;;11.50;7.50;;;;;;;9.44;94.29;99538.84;5054884;28;20025;-87
2022/01/01 06:01:29;;;;;;;12.20;8.20;;;;;;;9.54;93.77;99552.47;5051574;28;20032;-85
2022/01/01 06:03:55;;;;;;;11.98;7.47;;;;;;;9.47;94.17;99548.25;5018682;28;20029;-86
2022/01/01 06:06:20;;;;;;;13.88;8.43;;;;;;;9.54;94.32;99567.63;5048910;28;20048;-85
2022/01/01 06:08:45;;;;;;;15.95;8.38;;;;;;;9.53;94.54;99568.66;5051804;28;20111;-85
2022/01/01 06:11:19;;;;;;;12.43;8.40;;;;;;;9.06;93.83;99487.69;5032499;28;20035;-86
2022/01/01 06:13:48;;;;;;;10.75;7.85;;;;;;;9.21;94.47;99509.44;5051268;28;20087;-86
2022/01/01 06:16:22;;;;;;;9.25;6.90;;;;;;;9.37;94.17;99537.31;5043532;28;20573;-86
2022/01/01 06:18:50;;;;;;;10.13;7.90;;;;;;;8.98;93.81;99480.81;5039192;28;20037;-87
2022/01/01 06:21:18;;;;;;;11.48;7.65;;;;;;;9.18;93.74;99512.53;5033526;28;20067;-86
2022/01/01 06:23:48;;;;;;;10.40;7.13;;;;;;;9.53;94.25;99574.00;5069522;28;20032;-85
2022/01/01 06:26:15;;;;;;;11.10;6.82;;;;;;;9.51;93.80;99570.72;5057171;28;20032;-85
2022/01/01 06:28:41;;;;;;;11.73;7.53;;;;;;;9.53;94.23;99587.31;5042405;28;20033;-84
2022/01/01 06:31:08;;;;;;;11.65;8.07;;;;;;;9.54;94.00;99583.63;5075436;28;20020;-85
2022/01/01 06:33:33;;;;;;;10.18;7.35;;;;;;;9.53;94.20;99587.31;5077528;28;20020;-85
2022/01/01 06:36:14;;;;;;;13.05;7.25;;;;;;;9.53;93.76;99587.31;5056681;28;20049;-85
2022/01/01 06:38:53;;;;;;;12.00;8.23;;;;;;;9.45;94.19;99577.78;5056405;28;20032;-85
2022/01/01 06:41:24;;;;;;;11.52;7.72;;;;;;;9.40;93.70;99574.16;5056904;28;20095;-86
2022/01/01 06:43:50;;;;;;;12.55;8.25;;;;;;;9.51;93.86;99589.38;5062974;28;20028;-86
2022/01/01 06:46:17;;;;;;;16.77;7.25;;;;;;;9.27;93.67;99560.97;5053084;28;20043;-86
2022/01/01 06:48:43;;;;;;;17.17;8.75;;;;;;;9.51;94.04;99597.38;5052721;28;20035;-86
2022/01/01 06:51:09;;;;;;;11.57;7.80;;;;;;;9.34;93.68;99586.53;5053020;28;20489;-86
2022/01/01 06:53:35;;;;;;;9.80;7.55;;;;;;;9.51;93.70;99608.03;5053458;28;20052;-85
2022/01/01 06:56:05;;;;;;;12.18;6.95;;;;;;;9.49;93.69;99605.63;5033393;28;20448;-85
2022/01/01 06:58:33;;;;;;;23.35;8.25;;;;;;;9.51;93.75;99621.38;5050272;28;20029;-86
2022/01/01 07:00:59;;;;;;;9.15;6.55;;;;;;;9.42;93.96;99604.88;5051425;28;20033;-86
2022/01/01 07:03:24;;;;;;;15.55;8.15;;;;;;;9.50;94.03;99627.75;5034676;28;20025;-86
2022/01/01 07:05:50;;;;;;;9.63;6.50;;;;;;;9.40;93.95;99614.09;5051668;28;20025;-86
2022/01/01 07:08:16;;;;;;;15.73;6.97;;;;;;;9.45;94.13;99616.94;5052474;28;20107;-85
2022/01/01 07:10:44;;;;;;;8.75;6.88;;;;;;;9.46;93.49;99626.53;5035332;28;20489;-86
2022/01/01 07:13:11;;;;;;;11.60;6.93;;;;;;;9.49;93.86;99631.44;5052361;28;20389;-86
2022/01/01 07:15:37;;;;;;;15.35;7.07;;;;;;;9.50;93.82;99641.88;5046933;28;20050;-87
2022/01/01 07:18:03;;;;;;;12.20;6.85;;;;;;;9.43;93.82;99635.00;5052239;28;20025;-86
2022/01/01 07:20:28;;;;;;;9.70;6.78;;;;;;;9.49;93.52;99640.25;5036386;28;20040;-85
2022/01/01 07:22:53;;;;;;;9.65;6.60;;;;;;;9.48;93.57;99641.28;5040257;28;20033;-85
2022/01/01 07:25:20;;;;;;;11.98;6.80;;;;;;;9.37;93.86;99627.91;5056033;28;20036;-86
2022/01/01 07:27:46;;;;;;;11.18;5.80;;;;;;;9.38;93.36;99627.66;5038891;28;20110;-87
2022/01/01 07:30:12;;;;;;;10.75;5.47;;;;;;;9.49;93.29;99655.41;5056539;28;20056;-87
2022/01/01 07:32:42;;;;;;;13.27;5.32;;;;;;;9.49;93.51;99663.41;5051122;28;20151;-86
2022/01/01 07:35:09;;;;;;;11.68;5.63;;;;;;;9.49;93.50;99660.75;5047700;28;20025;-85
2022/01/01 07:37:35;;;;;;;9.52;5.93;;;;;;;9.49;93.46;99648.25;5027890;28;20041;-85
2022/01/01 07:40:01;;;;;;;12.95;5.78;;;;;;;9.49;93.62;99653.56;5033136;28;20036;-84
2022/01/01 07:42:27;;;;;;;9.27;5.50;;;;;;;9.50;93.68;99655.19;5057139;28;20021;-84
2022/01/01 07:44:52;;;;;;;11.50;5.78;;;;;;;9.48;93.53;99648.47;5058798;28;20031;-84
2022/01/01 07:47:18;;;;;;;13.95;6.53;;;;;;;9.47;92.82;99652.97;5040608;28;20049;-85
2022/01/01 07:49:44;;;;;;;14.18;5.78;;;;;;;9.44;92.87;99647.25;5016612;28;20064;-84
2022/01/01 07:52:11;;;;;;;10.93;5.82;;;;;;;9.48;93.39;99651.13;5036639;28;20033;-84
2022/01/01 07:54:36;;;;;;;12.73;5.13;;;;;;;9.49;93.08;99652.75;5048605;28;20465;-85
2022/01/01 07:57:06;;;;;;;10.90;5.43;;;;;;;9.47;93.14;99647.66;5052531;28;20029;-85
2022/01/01 07:59:32;;;;;;;12.85;5.68;;;;;;;9.11;93.38;99593.53;5055345;28;20032;-86
2022/01/01 08:01:57;;;;;;;16.52;5.32;;;;;;;9.48;92.83;99657.25;5036628;28;20029;-85
2022/01/01 08:04:26;;;;;;;19.15;7.05;;;;;;;9.48;93.52;99656.47;5049264;28;20039;-87
2022/01/01 08:06:52;;;;;;;10.63;6.15;;;;;;;9.34;93.37;99633.66;5043224;28;20029;-87
2022/01/01 08:09:19;;;;;;;17.95;6.72;;;;;;;9.50;93.53;99657.06;5053601;28;20032;-86
2022/01/01 08:11:50;;;;;;;15.15;6.22;;;;;;;9.50;92.75;99655.19;5051721;28;20091;-85
2022/01/01 08:14:16;;;;;;;12.98;6.63;;;;;;;9.50;92.84;99663.19;5050342;28;20563;-86
2022/01/01 08:17:02;;;;;;;12.15;6.43;;;;;;;9.48;93.20;99653.81;5052169;28;20033;-85
2022/01/01 08:19:32;;;;;;;;;;;;;;;9.51;92.81;99664.00;5039430;28;20553;-85
2022/01/01 08:22:04;;;;;;;13.18;6.47;;;;;;;9.30;93.21;99632.47;5064872;28;19912;-85
2022/01/01 08:24:30;;;;;;;14.65;5.95;;;;;;;9.43;93.06;99658.97;5056658;28;20052;-86
2022/01/01 08:26:56;;;;;;;13.05;6.32;;;;;;;9.50;93.25;99659.72;5045531;28;20048;-86
2022/01/01 08:29:21;;;;;;;13.95;7.28;;;;;;;9.54;92.97;99676.91;5019263;28;20033;-87
2022/01/01 08:31:47;;;;;;;14.02;6.70;;;;;;;9.56;93.26;99682.81;5037472;28;20040;-87
2022/01/01 08:34:13;;;;;;;12.80;7.35;;;;;;;9.58;93.45;99686.06;5054122;28;20039;-86
2022/01/01 08:36:40;;;;;;;16.83;6.82;;;;;;;9.48;92.77;99659.94;5038308;28;20132;-85
2022/01/01 08:39:06;;;;;;;11.40;6.30;;;;;;;9.62;93.05;99672.09;5055242;28;20033;-86
2022/01/01 08:41:32;;;;;;;17.83;7.00;;;;;;;9.65;92.92;99666.28;5038799;28;20072;-87
2022/01/01 08:43:58;;;;;;;15.60;7.15;;;;;;;9.67;92.57;99672.25;5055878;28;20024;-87
2022/01/01 08:46:23;;;;;;;14.73;6.47;;;;;;;9.68;92.71;99667.69;5024176;28;20033;-85
2022/01/01 08:48:49;;;;;;;15.85;7.95;;;;;;;9.70;92.85;99678.94;5054686;28;20032;-86
2022/01/01 08:51:16;;;;;;;16.17;6.97;;;;;;;9.72;92.93;99680.38;5053252;28;20035;-86
2022/01/01 08:53:42;;;;;;;12.57;6.45;;;;;;;9.64;93.06;99677.19;5053742;28;20112;-86
2022/01/01 08:56:09;;;;;;;13.77;7.15;;;;;;;9.74;92.53;99696.16;5054167;28;20049;-90
2022/01/01 08:58:36;;;;;;;13.32;6.30;;;;;;;9.57;92.28;99668.44;5042929;28;20127;-86
2022/01/01 09:01:04;;;;;;;13.52;6.30;;;;;;;9.76;92.95;99694.88;5044401;28;20028;-85
2022/01/01 09:03:30;;;;;;;11.95;6.93;;;;;;;9.62;92.46;99674.75;5041606;28;20033;-85
2022/01/01 09:05:56;;;;;;;13.30;7.35;;;;;;;9.80;92.44;99697.94;5058217;28;20070;-85
2022/01/01 09:08:22;;;;;;;12.55;7.13;;;;;;;9.75;92.59;99692.44;5060817;28;20021;-86
2022/01/01 09:10:50;;;;;;;13.13;6.82;;;;;;;9.74;92.17;99685.50;5061713;28;20025;-86
2022/01/01 09:13:16;;;;;;;12.05;6.15;;;;;;;9.85;92.37;99714.06;5038239;28;20030;-85
2022/01/01 09:15:41;;;;;;;14.38;7.00;;;;;;;9.82;92.09;99711.84;5052515;23;20029;-86
2022/01/01 09:18:07;;;;;;;7.57;5.82;;;;;;;9.86;92.30;99712.22;5059962;28;20485;-85
2022/01/01 09:20:32;;;;;;;10.55;6.00;;;;;;;9.88;92.49;99723.47;5059401;28;20020;-86
2022/01/01 09:22:58;;;;;;;10.60;6.88;;;;;;;9.88;92.77;99729.63;5042515;28;20040;-85
2022/01/01 09:25:23;;;;;;;14.18;7.03;;;;;;;9.89;92.43;99723.25;5040459;28;20398;-86
2022/01/01 09:27:49;;;;;;;11.68;6.82;;;;;;;9.90;92.15;99719.53;5036922;28;20086;-84
2022/01/01 09:30:14;;;;;;;9.05;5.93;;;;;;;9.10;91.97;99581.25;5044762;28;20040;-85
2022/01/01 09:32:40;;;;;;;15.30;6.55;;;;;;;9.91;92.35;99704.38;5033330;28;20029;-85
2022/01/01 09:35:06;;;;;;;11.20;6.70;;;;;;;9.91;91.84;99701.69;5016765;28;20032;-87
2022/01/01 09:37:32;;;;;;;12.27;6.40;;;;;;;9.51;92.05;99632.84;5045926;28;20362;-87
2022/01/01 09:39:59;;;;;;;13.32;6.53;;;;;;;9.92;91.96;99706.81;5034558;28;20123;-86
2022/01/01 09:42:24;;;;;;;11.82;6.57;;;;;;;9.92;92.06;99705.97;5053414;28;20123;-87
2022/01/01 09:44:52;;;;;;;12.23;6.60;;;;;;;9.96;92.17;99712.53;5016787;28;20053;-87
2022/01/01 09:47:18;;;;;;;12.60;6.53;;;;;;;9.98;91.97;99713.91;5039343;28;20020;-87
2022/01/01 09:49:44;;;;;;;11.25;6.80;;;;;;;9.99;92.02;99717.38;5051129;28;20029;-87
2022/01/01 09:52:12;;;;;;;11.38;7.25;;;;;;;10.00;92.44;99722.53;5035946;28;20427;-87
2022/01/01 09:54:38;;;;;;;15.77;6.82;;;;;;;10.02;92.05;99724.97;5030697;28;20028;-87
2022/01/01 09:57:04;;;;;;;11.55;7.05;;;;;;;9.70;92.08;99671.78;5033949;28;20028;-87
2022/01/01 09:59:30;;;;;;;14.40;7.53;;;;;;;10.04;91.51;99731.69;5051294;28;20575;-87
2022/01/01 10:01:55;;;;;;;19.33;8.07;;;;;;;10.05;92.09;99727.97;5032812;28;20021;-87
2022/01/01 10:04:22;;;;;;;17.48;7.20;;;;;;;10.08;91.84;99732.06;5033366;28;20056;-87
2022/01/01 10:07:08;;;;;;;17.45;7.65;;;;;;;9.83;91.68;99697.47;5043602;28;20492;-87
2022/01/01 10:09:35;;;;;;;15.50;6.45;;;;;;;10.09;91.65;99729.16;5027531;28;20032;-87
2022/01/01 10:12:01;;;;;;;10.85;5.97;;;;;;;9.65;91.31;99663.63;5046220;28;20485;-87
2022/01/01 10:14:37;;;;;;;13.88;6.75;;;;;;;10.10;91.56;99737.97;5031156;28;20115;-87
2022/01/01 10:17:12;;;;;;;14.48;6.53;;;;;;;10.12;91.40;99734.09;5046184;28;20079;-88
2022/01/01 10:19:38;;;;;;;10.20;6.18;;;;;;;10.15;91.71;99728.31;5055508;28;20047;-85
2022/01/01 10:22:06;;;;;;;13.65;6.53;;;;;;;10.06;91.38;99710.13;5047447;28;20021;-84
2022/01/01 10:30:03;;;;;;;14.75;6.28;;;;;;;10.20;91.21;99733.78;5038785;28;20515;-85
2022/01/01 10:32:28;;;;;;;9.88;6.05;;;;;;;10.19;91.29;99728.69;5029881;28;20473;-85
2022/01/01 10:34:54;;;;;;;14.63;6.57;;;;;;;10.23;91.28;99736.00;5006057;28;20124;-85
2022/01/01 10:37:27;;;;;;;9.18;6.35;;;;;;;10.24;91.44;99726.94;5047054;28;20036;-86
2022/01/01 10:39:55;;;;;;;12.73;7.05;;;;;;;10.27;91.23;99726.50;5037067;28;20382;-85
2022/01/01 10:42:33;;;;;;;15.32;7.13;;;;;;;10.21;91.30;99715.94;5037442;28;20029;-84
2022/01/01 10:45:00;;;;;;;13.15;6.93;;;;;;;10.30;90.97;99723.41;5051979;28;20032;-84
2022/01/01 10:47:31;;;;;;;11.57;7.22;;;;;;;10.32;91.00;99732.00;5047549;28;20028;-86
2022/01/01 10:52:37;;;;;;;12.80;6.90;;;;;;;10.35;91.04;99718.19;5062211;28;20481;-86
2022/01/01 10:55:06;;;;;;;15.10;8.55;;;;;;;10.37;90.94;99731.31;5051912;28;20046;-85
2022/01/01 10:57:33;;;;;;;15.23;6.70;;;;;;;10.39;91.06;99723.91;5056861;28;20025;-86
2022/01/01 11:00:09;;;;;;;13.27;7.63;;;;;;;10.39;90.88;99719.38;5020345;28;20056;-85
2022/01/01 11:02:37;;;;;;;15.15;7.38;;;;;;;10.37;91.03;99710.81;5052315;28;20074;-84
2022/01/01 11:05:04;;;;;;;12.07;6.75;;;;;;;10.36;90.87;99697.66;5073606;28;20415;-85
2022/01/01 11:07:34;;;;;;;14.55;6.85;;;;;;;10.41;91.00;99711.97;5036173;28;20116;-86
2022/01/01 11:10:00;;;;;;;15.25;6.65;;;;;;;10.44;90.92;99719.50;5052155;28;20261;-85
2022/01/01 11:12:30;;;;;;;13.18;7.18;;;;;;;10.45;90.51;99712.31;5036107;28;20033;-84
2022/01/01 11:14:59;;;;;;;19.17;7.68;;;;;;;10.47;90.86;99712.91;5055534;28;20031;-85
2022/01/01 11:17:25;;;;;;;12.73;6.47;;;;;;;10.24;90.76;99667.47;5025603;28;20178;-85
2022/01/01 11:19:51;;;;;;;19.25;7.78;;;;;;;10.49;90.68;99708.16;5030475;28;20036;-84
2022/01/01 11:22:18;;;;;;;12.75;7.72;;;;;;;10.49;91.03;99714.31;5050730;28;20017;-85
2022/01/01 11:24:47;;;;;;;13.13;7.78;;;;;;;10.49;90.42;99711.66;5042506;28;20029;-85
2022/01/01 11:27:17;;;;;;;13.48;8.05;;;;;;;10.50;90.63;99709.78;5037032;28;20100;-85
2022/01/01 11:29:50;;;;;;;11.90;8.32;;;;;;;10.48;91.01;99707.34;5047687;28;20080;-84
2022/01/01 11:32:20;;;;;;;16.30;8.73;;;;;;;10.41;90.78;99689.81;5044333;28;20035;-85
2022/01/01 11:34:54;;;;;;;15.10;8.35;;;;;;;10.45;90.92;99697.13;5042849;28;20065;-83
2022/01/01 11:37:22;;;;;;;12.38;7.35;;;;;;;10.44;90.36;99674.13;5029709;28;20366;-85